Time;durP1;ratioP1;P1;durP2;ratioP2;P2;SDS_P1;SDS_P2;PMS_P1;PMS_P2;Temp;Humidity;BMP_temperature;BMP_pressure;BME280_temperature;BME280_humidity;BME280_pressure;Samples;Min_cycle;Max_cycle;Signal;HPM_P1;HPM_P2
2022/03/04 00:00:17;;;;;;;53.03;23.37;;;-0.40;99.90;;;;;;8342525;28;20267;-65
2022/03/04 00:04:17;;;;;;;51.80;22.23;;;-0.40;99.90;;;;;;8361742;28;20217;-65
2022/03/04 00:08:19;;;;;;;47.27;22.30;;;-0.40;99.90;;;;;;8342123;28;20206;-65
2022/03/04 00:12:20;;;;;;;40.87;20.30;;;-0.40;99.90;;;;;;8340819;28;20204;-65
2022/03/04 00:16:20;;;;;;;43.03;21.13;;;-0.40;99.90;;;;;;8337448;28;20225;-65
2022/03/04 00:20:21;;;;;;;49.00;21.57;;;-0.40;99.90;;;;;;8348917;28;20240;-65
2022/03/04 00:24:23;;;;;;;47.97;22.07;;;-0.40;99.90;;;;;;8343083;28;20195;-65
2022/03/04 00:28:24;;;;;;;47.17;21.57;;;-0.30;99.90;;;;;;8344548;28;20202;-66
2022/03/04 00:32:25;;;;;;;49.13;22.03;;;-0.40;99.90;;;;;;8360850;28;20203;-65
2022/03/04 00:36:26;;;;;;;49.93;22.77;;;-0.40;99.90;;;;;;8314029;28;20297;-65
2022/03/04 00:40:27;;;;;;;52.30;22.03;;;-0.40;99.90;;;;;;8343278;28;20246;-65
2022/03/04 00:44:28;;;;;;;52.27;23.63;;;-0.40;99.90;;;;;;8340383;28;20206;-65
2022/03/04 00:48:28;;;;;;;50.73;22.40;;;-0.40;99.90;;;;;;8343629;28;20210;-65
2022/03/04 00:52:30;;;;;;;45.73;22.03;;;-0.40;99.90;;;;;;8343517;28;20198;-65
2022/03/04 00:56:31;;;;;;;40.20;19.00;;;-0.40;99.90;;;;;;8344253;28;20231;-65
2022/03/04 01:00:34;;;;;;;49.13;21.87;;;-0.40;99.90;;;;;;8338091;28;20309;-65
2022/03/04 01:04:34;;;;;;;44.53;19.43;;;-0.30;99.90;;;;;;8361433;28;20226;-65
2022/03/04 01:08:35;;;;;;;45.43;18.97;;;-0.30;99.90;;;;;;8339522;28;20204;-64
2022/03/04 01:12:36;;;;;;;52.70;22.77;;;-0.20;99.90;;;;;;8336018;28;20202;-65
2022/03/04 01:16:37;;;;;;;52.90;21.30;;;-0.30;99.90;;;;;;8344275;28;20225;-65
2022/03/04 01:20:38;;;;;;;47.50;20.83;;;-0.30;99.90;;;;;;8344129;28;20214;-65
2022/03/04 01:24:39;;;;;;;47.17;20.60;;;-0.30;99.90;;;;;;8321789;28;20413;-65
2022/03/04 01:28:40;;;;;;;44.87;20.73;;;-0.30;99.90;;;;;;8343516;28;20193;-65
2022/03/04 01:32:41;;;;;;;41.90;19.80;;;-0.30;99.90;;;;;;8343600;28;20214;-65
2022/03/04 01:36:42;;;;;;;45.63;20.70;;;-0.20;99.90;;;;;;8344556;28;20254;-64
2022/03/04 01:40:43;;;;;;;44.73;20.13;;;-0.10;99.90;;;;;;8344543;28;20213;-65
2022/03/04 01:44:44;;;;;;;39.80;19.87;;;0.00;99.90;;;;;;8345023;28;20204;-65
2022/03/04 01:48:46;;;;;;;51.63;22.93;;;0.00;99.90;;;;;;8343407;28;20206;-65
2022/03/04 01:52:47;;;;;;;45.47;20.47;;;-0.10;99.90;;;;;;8355984;28;20301;-65
2022/03/04 01:56:48;;;;;;;52.00;21.47;;;-0.10;99.90;;;;;;8348853;28;20198;-65
2022/03/04 02:00:50;;;;;;;51.27;22.10;;;-0.20;99.90;;;;;;8363994;28;20225;-65
2022/03/04 02:04:51;;;;;;;51.67;22.33;;;-0.20;99.90;;;;;;8342180;28;20213;-64
2022/03/04 02:08:52;;;;;;;47.93;22.20;;;-0.20;99.90;;;;;;8331849;28;20206;-65
2022/03/04 02:12:53;;;;;;;42.63;19.73;;;-0.20;99.90;;;;;;8335075;28;20289;-65
2022/03/04 02:16:55;;;;;;;44.47;19.37;;;-0.20;99.90;;;;;;8335772;28;20211;-65
2022/03/04 02:21:02;;;;;;;45.17;21.17;;;-0.20;99.90;;;;;;8328051;28;20219;-65
2022/03/04 02:25:05;;;;;;;44.93;21.53;;;-0.20;99.90;;;;;;8349412;28;20244;-65
2022/03/04 02:29:06;;;;;;;45.43;20.27;;;-0.20;99.90;;;;;;8349442;28;20226;-65
2022/03/04 02:33:07;;;;;;;39.00;19.40;;;-0.20;99.90;;;;;;8348048;28;20207;-64
2022/03/04 02:37:08;;;;;;;52.13;22.83;;;-0.10;99.90;;;;;;8349977;28;20224;-64
2022/03/04 02:41:09;;;;;;;49.03;21.33;;;-0.20;99.90;;;;;;8348291;28;20284;-65
2022/03/04 02:45:10;;;;;;;49.80;21.40;;;-0.10;99.90;;;;;;8349047;28;20222;-65
2022/03/04 02:49:12;;;;;;;54.77;23.20;;;-0.20;99.90;;;;;;8348963;28;20209;-65
2022/03/04 02:53:13;;;;;;;53.53;21.73;;;-0.20;99.90;;;;;;8348699;28;20239;-65
2022/03/04 02:57:14;;;;;;;54.07;23.20;;;-0.20;99.90;;;;;;8348860;28;20220;-65
2022/03/04 03:01:15;;;;;;;54.67;23.80;;;-0.20;99.90;;;;;;8347526;28;20237;-65
2022/03/04 03:05:16;;;;;;;56.90;25.33;;;-0.30;99.90;;;;;;8346936;28;20271;-65
2022/03/04 03:09:17;;;;;;;60.40;24.90;;;-0.30;99.90;;;;;;8355495;28;20199;-65
2022/03/04 03:13:17;;;;;;;57.80;25.27;;;-0.30;99.90;;;;;;8347557;28;20198;-65
2022/03/04 03:17:18;;;;;;;59.17;24.73;;;-0.30;99.90;;;;;;8348701;28;20211;-65
2022/03/04 03:21:19;;;;;;;57.33;24.73;;;-0.30;99.90;;;;;;8338558;28;20222;-65
2022/03/04 03:25:20;;;;;;;66.37;26.27;;;-0.40;99.90;;;;;;8343145;28;20230;-65
2022/03/04 03:29:21;;;;;;;64.93;26.30;;;-0.40;99.90;;;;;;8345627;28;20214;-65
2022/03/04 03:33:22;;;;;;;65.90;27.20;;;-0.50;99.90;;;;;;8348141;28;20197;-65
2022/03/04 03:37:22;;;;;;;67.23;25.73;;;-0.50;99.90;;;;;;8347683;28;20217;-65
2022/03/04 03:41:23;;;;;;;58.10;25.10;;;-0.50;99.90;;;;;;8348198;28;20226;-65
2022/03/04 03:45:24;;;;;;;58.73;24.47;;;-0.50;99.90;;;;;;8348073;28;20211;-65
2022/03/04 03:49:25;;;;;;;58.13;25.03;;;-0.50;99.90;;;;;;8347776;28;20263;-66
2022/03/04 03:53:26;;;;;;;55.03;23.47;;;-0.60;99.90;;;;;;8348237;28;20197;-65
2022/03/04 03:57:28;;;;;;;58.47;24.73;;;-0.60;99.90;;;;;;8365159;28;20233;-65
2022/03/04 04:01:29;;;;;;;46.90;21.53;;;-0.50;99.90;;;;;;8347943;28;20221;-66
2022/03/04 04:05:30;;;;;;;63.00;25.97;;;-0.50;99.90;;;;;;8347872;28;20285;-64
2022/03/04 04:09:31;;;;;;;60.00;25.73;;;-0.40;99.90;;;;;;8348596;28;20209;-65
2022/03/04 04:13:32;;;;;;;63.13;26.80;;;-0.50;99.90;;;;;;8346489;28;20218;-65
2022/03/04 04:17:33;;;;;;;64.57;24.30;;;-0.50;99.90;;;;;;8347878;28;20205;-65
2022/03/04 04:21:34;;;;;;;57.97;23.50;;;-0.50;99.90;;;;;;8346263;28;20222;-65
2022/03/04 04:25:35;;;;;;;61.03;26.23;;;-0.60;99.90;;;;;;8364265;28;20255;-65
2022/03/04 04:29:37;;;;;;;61.03;26.57;;;-0.50;99.90;;;;;;8347320;28;20218;-65
2022/03/04 04:33:38;;;;;;;59.40;25.97;;;-0.60;99.90;;;;;;8346887;28;20210;-65
2022/03/04 04:37:38;;;;;;;57.30;25.13;;;-0.60;99.90;;;;;;8340792;28;20286;-65
2022/03/04 04:41:39;;;;;;;61.83;26.80;;;-0.60;99.90;;;;;;8345934;28;20248;-65
2022/03/04 04:45:40;;;;;;;64.17;26.87;;;-0.60;99.90;;;;;;8363786;28;20202;-65
2022/03/04 04:49:41;;;;;;;59.87;27.87;;;-0.60;99.90;;;;;;8345624;28;20327;-64
2022/03/04 04:53:43;;;;;;;64.67;27.40;;;-0.60;99.90;;;;;;8329600;28;20211;-65
2022/03/04 04:57:44;;;;;;;62.37;25.50;;;-0.70;99.90;;;;;;8346407;28;20243;-65
2022/03/04 05:01:45;;;;;;;62.13;25.43;;;-0.70;99.90;;;;;;8344114;28;20221;-64
2022/03/04 05:05:47;;;;;;;69.27;27.30;;;-0.60;99.90;;;;;;8346203;28;20217;-65
2022/03/04 05:09:48;;;;;;;68.00;27.00;;;-0.60;99.90;;;;;;8362814;28;20254;-65
2022/03/04 05:13:49;;;;;;;72.40;26.57;;;-0.60;99.90;;;;;;8363536;28;20201;-65
2022/03/04 05:17:51;;;;;;;64.60;27.13;;;-0.60;99.90;;;;;;8339833;28;20206;-65
2022/03/04 05:21:51;;;;;;;63.30;25.20;;;-0.60;99.90;;;;;;8344056;28;20213;-65
2022/03/04 05:25:52;;;;;;;66.40;25.33;;;-0.60;99.90;;;;;;8363112;28;20205;-65
2022/03/04 05:29:53;;;;;;;62.77;26.90;;;-0.60;99.90;;;;;;8363056;28;20220;-65
2022/03/04 05:33:54;;;;;;;62.97;26.80;;;-0.60;99.90;;;;;;8346037;28;20216;-65
2022/03/04 05:37:55;;;;;;;61.10;23.80;;;-0.60;99.90;;;;;;8350147;28;20218;-65
2022/03/04 05:41:56;;;;;;;59.10;24.97;;;-0.60;99.90;;;;;;8351451;28;20257;-64
2022/03/04 05:45:57;;;;;;;63.97;25.70;;;-0.60;99.90;;;;;;8350707;28;20205;-64
2022/03/04 05:49:58;;;;;;;57.60;23.87;;;-0.50;99.90;;;;;;8349324;28;20201;-66
2022/03/04 05:53:59;;;;;;;55.43;25.40;;;-0.50;99.90;;;;;;8341844;28;20193;-65
2022/03/04 05:58:00;;;;;;;68.97;25.53;;;-0.40;99.90;;;;;;8333004;28;20251;-65
2022/03/04 06:02:01;;;;;;;66.83;27.30;;;-0.40;99.90;;;;;;8340485;28;20219;-65
2022/03/04 06:06:03;;;;;;;60.20;25.10;;;-0.40;99.90;;;;;;8338893;28;20197;-64
2022/03/04 06:10:05;;;;;;;69.00;26.43;;;-0.30;99.90;;;;;;8341282;28;20198;-64
2022/03/04 06:14:06;;;;;;;60.27;27.63;;;-0.30;99.90;;;;;;8331194;28;20208;-65
2022/03/04 06:18:07;;;;;;;64.93;25.50;;;-0.20;99.90;;;;;;8338546;28;20222;-65
2022/03/04 06:22:08;;;;;;;64.43;28.10;;;-0.20;99.90;;;;;;8359307;28;20213;-65
2022/03/04 06:26:09;;;;;;;66.70;28.37;;;-0.10;99.90;;;;;;8342849;28;20209;-64
2022/03/04 06:30:10;;;;;;;92.23;34.60;;;0.00;99.90;;;;;;8337624;28;20283;-64
2022/03/04 06:34:11;;;;;;;71.70;28.83;;;0.10;99.90;;;;;;8339671;28;20216;-65
2022/03/04 06:38:13;;;;;;;56.93;27.50;;;0.20;99.90;;;;;;8353408;28;20220;-65
2022/03/04 06:42:14;;;;;;;55.60;26.17;;;0.30;99.90;;;;;;8357195;28;20274;-65
2022/03/04 06:46:16;;;;;;;57.07;26.07;;;0.30;99.90;;;;;;8341756;28;20242;-64
2022/03/04 06:50:17;;;;;;;59.80;27.37;;;0.30;99.90;;;;;;8333903;28;20207;-64
2022/03/04 06:54:18;;;;;;;62.63;28.93;;;0.20;99.90;;;;;;8340691;28;20206;-64
2022/03/04 06:58:20;;;;;;;56.40;25.47;;;0.20;99.90;;;;;;8359394;28;20218;-65
2022/03/04 07:02:21;;;;;;;57.77;24.77;;;0.20;99.90;;;;;;8355757;28;20234;-64
2022/03/04 07:06:22;;;;;;;80.07;30.73;;;0.20;99.90;;;;;;8359641;28;20200;-65
2022/03/04 07:10:23;;;;;;;71.57;28.93;;;0.40;99.90;;;;;;8337875;28;20211;-65
2022/03/04 07:14:24;;;;;;;49.67;24.87;;;0.40;99.90;;;;;;8338788;28;20207;-64
2022/03/04 07:18:25;;;;;;;53.57;23.10;;;0.40;99.90;;;;;;8358983;28;20267;-65
2022/03/04 07:22:26;;;;;;;46.30;21.57;;;0.50;99.90;;;;;;8332930;28;20212;-64
2022/03/04 07:26:27;;;;;;;50.77;23.30;;;0.50;99.90;;;;;;8329872;28;20295;-66
2022/03/04 07:30:28;;;;;;;48.20;21.47;;;0.60;99.90;;;;;;8339421;28;20241;-65
2022/03/04 07:34:29;;;;;;;44.77;21.87;;;0.70;99.90;;;;;;8341267;28;20209;-66
2022/03/04 07:38:30;;;;;;;45.53;22.33;;;0.60;99.90;;;;;;8342155;28;20216;-65
2022/03/04 07:42:31;;;;;;;38.67;18.80;;;0.70;99.90;;;;;;8338249;28;20253;-64
2022/03/04 07:46:32;;;;;;;37.40;17.47;;;0.70;99.90;;;;;;8341034;28;20208;-64
2022/03/04 07:50:36;;;;;;;37.40;18.57;;;0.80;99.90;;;;;;8359879;28;20200;-66
2022/03/04 07:54:37;;;;;;;34.03;17.33;;;1.00;99.90;;;;;;8332024;28;20333;-65
2022/03/04 07:58:37;;;;;;;37.27;17.50;;;1.10;99.90;;;;;;8360111;28;20213;-64
2022/03/04 08:02:39;;;;;;;32.63;16.77;;;1.10;99.90;;;;;;8343153;28;20266;-65
2022/03/04 08:06:40;;;;;;;33.57;14.87;;;1.10;99.90;;;;;;8341540;28;20203;-64
2022/03/04 08:10:41;;;;;;;27.20;15.47;;;1.00;99.90;;;;;;8357036;28;20256;-63
2022/03/04 08:14:42;;;;;;;28.03;13.33;;;1.00;99.90;;;;;;8337438;28;20204;-64
2022/03/04 08:18:43;;;;;;;23.30;13.27;;;0.90;99.90;;;;;;8340125;28;20235;-64
2022/03/04 08:22:44;;;;;;;26.33;13.13;;;0.80;99.90;;;;;;8358619;28;20204;-64
2022/03/04 08:26:44;;;;;;;22.37;11.77;;;0.80;99.90;;;;;;8328383;28;20235;-65
2022/03/04 08:30:45;;;;;;;24.37;11.73;;;0.90;99.90;;;;;;8339490;28;20297;-64
2022/03/04 08:34:46;;;;;;;20.23;11.13;;;0.90;99.90;;;;;;8357400;28;20210;-64
2022/03/04 08:38:47;;;;;;;21.87;12.80;;;0.80;99.90;;;;;;8339264;28;20259;-64
2022/03/04 08:42:48;;;;;;;20.37;12.17;;;0.80;99.90;;;;;;8338562;28;20208;-64
2022/03/04 08:46:49;;;;;;;23.87;12.20;;;0.80;99.90;;;;;;8335551;28;20240;-65
2022/03/04 08:50:50;;;;;;;18.43;12.37;;;0.90;99.90;;;;;;8357785;28;20244;-64
2022/03/04 08:54:51;;;;;;;18.87;11.77;;;1.00;99.90;;;;;;8355733;28;20210;-65
2022/03/04 08:58:53;;;;;;;18.97;11.07;;;1.00;99.90;;;;;;8331216;28;20310;-65
2022/03/04 09:02:55;;;;;;;17.87;10.67;;;1.10;99.90;;;;;;8355995;28;20234;-64
2022/03/04 09:06:55;;;;;;;24.07;11.33;;;1.10;99.90;;;;;;8331080;28;20212;-64
2022/03/04 09:10:56;;;;;;;18.27;11.50;;;1.10;99.90;;;;;;8351458;28;20274;-65
2022/03/04 09:14:58;;;;;;;20.33;11.03;;;1.20;99.90;;;;;;8331359;28;20208;-65
2022/03/04 09:18:58;;;;;;;21.13;10.73;;;1.20;99.90;;;;;;8336442;28;20202;-64
2022/03/04 09:22:59;;;;;;;19.23;12.13;;;1.40;99.90;;;;;;8331799;28;20213;-64
2022/03/04 09:27:00;;;;;;;18.73;11.13;;;1.60;99.90;;;;;;8339471;28;20225;-64
2022/03/04 09:31:01;;;;;;;18.40;10.30;;;1.70;99.90;;;;;;8355259;28;20214;-64
2022/03/04 09:35:02;;;;;;;20.50;10.87;;;1.90;99.90;;;;;;8349251;28;20202;-64
2022/03/04 09:39:03;;;;;;;17.40;10.77;;;1.90;99.90;;;;;;8352033;28;20240;-64
2022/03/04 09:43:08;;;;;;;18.93;11.10;;;2.00;99.90;;;;;;8338790;28;20273;-64
2022/03/04 09:47:10;;;;;;;16.90;10.73;;;2.10;99.90;;;;;;8336279;28;20251;-64
2022/03/04 09:51:11;;;;;;;21.50;10.73;;;2.10;99.90;;;;;;8348202;28;20300;-63
2022/03/04 09:55:13;;;;;;;18.90;10.83;;;2.20;99.90;;;;;;8355066;28;20356;-63
2022/03/04 09:59:14;;;;;;;17.30;11.27;;;2.30;99.90;;;;;;8338168;28;20224;-63
2022/03/04 10:03:30;;;;;;;22.47;11.23;;;2.20;99.90;;;;;;8331704;28;20206;-64
2022/03/04 10:07:49;;;;;;;16.53;10.07;;;2.20;99.90;;;;;;8333650;28;20206;-65
2022/03/04 10:12:02;;;;;;;19.80;10.20;;;2.30;99.90;;;;;;8336153;28;20287;-64
2022/03/04 10:16:03;;;;;;;16.93;10.73;;;2.30;99.90;;;;;;8337891;28;20248;-64
2022/03/04 10:20:13;;;;;;;21.20;13.40;;;2.20;99.90;;;;;;8333485;28;20312;-64
2022/03/04 10:24:16;;;;;;;13.27;9.17;;;2.30;99.90;;;;;;8358391;28;20201;-64
2022/03/04 10:28:18;;;;;;;21.30;10.77;;;2.40;99.90;;;;;;8337517;28;20208;-65
2022/03/04 10:32:20;;;;;;;18.67;10.40;;;2.20;99.90;;;;;;8346827;28;20232;-65
2022/03/04 10:36:21;;;;;;;14.50;9.13;;;2.00;99.90;;;;;;8339709;28;20201;-64
2022/03/04 10:40:29;;;;;;;15.73;9.93;;;2.10;99.90;;;;;;8337660;28;20220;-64
2022/03/04 10:44:29;;;;;;;17.33;11.23;;;2.10;99.90;;;;;;8352175;28;20214;-65
2022/03/04 10:48:31;;;;;;;16.50;10.50;;;2.20;99.90;;;;;;8327320;28;20209;-65
2022/03/04 10:52:32;;;;;;;19.83;12.60;;;2.30;99.90;;;;;;8352011;28;20205;-64
2022/03/04 10:56:48;;;;;;;18.93;11.23;;;2.40;99.90;;;;;;8337952;28;20229;-64
2022/03/04 11:00:55;;;;;;;19.20;11.03;;;2.40;99.90;;;;;;8351813;28;20226;-63
2022/03/04 11:04:56;;;;;;;18.27;11.30;;;2.30;99.90;;;;;;8339460;28;20193;-64
2022/03/04 11:08:57;;;;;;;18.03;10.73;;;2.30;99.90;;;;;;8329049;28;20212;-65
2022/03/04 11:12:58;;;;;;;17.73;11.63;;;2.30;99.90;;;;;;8340933;28;20229;-64
2022/03/04 11:17:00;;;;;;;14.47;10.57;;;2.40;99.90;;;;;;8334752;28;20370;-63
2022/03/04 11:21:03;;;;;;;19.33;11.43;;;2.70;99.90;;;;;;8339477;28;20232;-65
2022/03/04 11:25:06;;;;;;;18.30;10.00;;;3.30;99.90;;;;;;8325944;28;20201;-64
2022/03/04 11:29:07;;;;;;;16.17;9.43;;;3.50;99.90;;;;;;8353535;28;20240;-65
2022/03/04 11:33:15;;;;;;;20.23;9.77;;;3.70;99.90;;;;;;8345226;28;20209;-64
2022/03/04 11:37:18;;;;;;;14.90;9.27;;;3.60;99.90;;;;;;8334309;28;20218;-64
2022/03/04 11:41:23;;;;;;;17.00;9.20;;;3.20;99.90;;;;;;8333900;28;20221;-66
2022/03/04 11:45:34;;;;;;;12.60;8.20;;;3.10;99.90;;;;;;8329298;28;20209;-65
2022/03/04 11:49:38;;;;;;;13.97;9.07;;;3.20;99.90;;;;;;8327149;28;20216;-64
2022/03/04 11:53:39;;;;;;;17.00;9.53;;;3.00;99.90;;;;;;8336299;28;20229;-64
2022/03/04 11:57:43;;;;;;;13.07;9.63;;;3.00;1.00;;;;;;8330948;28;20221;-64
2022/03/04 12:01:45;;;;;;;12.17;7.30;;;3.30;18.30;;;;;;8336627;28;20428;-66
2022/03/04 12:05:47;;;;;;;15.50;8.53;;;3.30;1.00;;;;;;8328619;28;20206;-64
2022/03/04 12:09:54;;;;;;;12.40;7.77;;;3.60;1.00;;;;;;8352412;28;20224;-64
2022/03/04 12:14:07;;;;;;;10.60;8.20;;;3.50;99.90;;;;;;8330753;28;20310;-64
2022/03/04 12:18:16;;;;;;;13.77;9.23;;;3.50;99.90;;;;;;8350134;28;20292;-64
2022/03/04 12:22:17;;;;;;;11.97;8.37;;;3.30;99.90;;;;;;8350421;28;20206;-67
2022/03/04 12:26:24;;;;;;;14.20;9.50;;;3.20;1.00;;;;;;8328917;28;20202;-64
2022/03/04 12:30:26;;;;;;;13.93;8.70;;;3.10;99.90;;;;;;8334117;28;20198;-64
2022/03/04 12:34:27;;;;;;;12.17;8.07;;;3.10;1.00;;;;;;8327791;28;20206;-64
2022/03/04 12:38:30;;;;;;;11.43;8.60;;;3.20;99.90;;;;;;8336047;28;20253;-65
2022/03/04 12:42:31;;;;;;;15.00;9.00;;;3.20;1.00;;;;;;8336386;28;20209;-65
2022/03/04 12:46:37;;;;;;;15.97;8.60;;;3.20;99.90;;;;;;8326578;28;20209;-64
2022/03/04 12:50:38;;;;;;;11.50;8.07;;;3.20;1.00;;;;;;8334726;28;20198;-64
2022/03/04 12:54:39;;;;;;;15.03;9.33;;;3.10;99.90;;;;;;8330226;28;20209;-64
2022/03/04 12:58:48;;;;;;;11.97;7.80;;;3.00;70.10;;;;;;8336122;28;20308;-64
2022/03/04 13:02:49;;;;;;;9.87;6.57;;;3.20;1.00;;;;;;8352293;28;20209;-64
2022/03/04 13:07:01;;;;;;;11.30;5.93;;;3.30;99.90;;;;;;8349086;28;20201;-64
2022/03/04 13:11:20;;;;;;;8.57;5.73;;;3.30;99.90;;;;;;8334586;28;20193;-64
2022/03/04 13:15:21;;;;;;;11.40;5.30;;;3.60;98.30;;;;;;8348029;28;20205;-64
2022/03/04 13:19:23;;;;;;;7.50;5.73;;;3.70;99.90;;;;;;8334552;28;20248;-65
2022/03/04 13:23:24;;;;;;;12.23;7.17;;;3.70;99.90;;;;;;8328310;28;20205;-64
2022/03/04 13:27:43;;;;;;;10.90;6.57;;;3.50;91.80;;;;;;8348612;28;20206;-64
2022/03/04 13:31:44;;;;;;;13.97;6.33;;;3.50;99.90;;;;;;8329628;28;20204;-64
2022/03/04 13:35:57;;;;;;;9.87;5.60;;;3.30;99.90;;;;;;8336063;28;20271;-64
2022/03/04 13:40:00;;;;;;;7.77;5.60;;;3.30;59.70;;;;;;8335352;28;20209;-65
2022/03/04 13:44:12;;;;;;;6.40;5.57;;;3.40;1.00;;;;;;8334524;28;20202;-66
2022/03/04 13:48:13;;;;;;;7.67;4.63;;;3.50;1.00;;;;;;8342560;28;20201;-64
2022/03/04 13:52:16;;;;;;;7.57;3.70;;;3.60;99.90;;;;;;8352465;28;20202;-65
2022/03/04 13:56:17;;;;;;;6.13;3.57;;;3.60;99.90;;;;;;8330179;28;20205;-64
2022/03/04 14:00:19;;;;;;;5.60;4.07;;;3.50;1.00;;;;;;8355631;28;20210;-64
2022/03/04 14:04:20;;;;;;;5.90;3.57;;;3.60;1.00;;;;;;8339176;28;20214;-65
2022/03/04 14:08:24;;;;;;;7.40;4.43;;;3.80;99.90;;;;;;8338233;28;20201;-64
2022/03/04 14:12:24;;;;;;;6.07;3.67;;;3.80;99.90;;;;;;8333089;28;20209;-67
2022/03/04 14:16:25;;;;;;;6.90;4.00;;;3.60;99.90;;;;;;8356430;28;20209;-65
2022/03/04 14:20:28;;;;;;;6.00;4.17;;;3.70;1.00;;;;;;8353198;28;21106;-65
2022/03/04 14:24:29;;;;;;;8.47;4.63;;;3.60;99.90;;;;;;8336573;28;20206;-64
2022/03/04 14:28:31;;;;;;;7.83;5.23;;;3.60;1.00;;;;;;8339071;28;20212;-64
2022/03/04 14:32:32;;;;;;;9.00;4.93;;;3.60;85.60;;;;;;8338891;28;20205;-63
2022/03/04 14:36:33;;;;;;;8.03;5.03;;;3.60;99.90;;;;;;8337638;28;20215;-63
2022/03/04 14:40:35;;;;;;;7.70;3.37;;;3.60;1.00;;;;;;8347694;28;20634;-64
2022/03/04 14:44:35;;;;;;;7.63;5.17;;;3.60;99.90;;;;;;8325044;28;20202;-64
2022/03/04 14:48:38;;;;;;;5.20;3.53;;;3.60;1.00;;;;;;8356093;28;20205;-64
2022/03/04 14:52:40;;;;;;;6.40;3.03;;;3.50;1.00;;;;;;8328806;28;20223;-63
2022/03/04 14:56:41;;;;;;;10.43;4.20;;;3.20;99.90;;;;;;8333181;28;20266;-63
2022/03/04 15:00:42;;;;;;;10.03;5.50;;;3.10;99.90;;;;;;8336846;28;20217;-64
2022/03/04 15:04:43;;;;;;;44.67;26.77;;;3.10;99.90;;;;;;8352041;28;20251;-64
2022/03/04 15:08:44;;;;;;;12.47;5.37;;;2.90;99.90;;;;;;8356989;28;20197;-64
2022/03/04 15:12:45;;;;;;;20.67;8.67;;;2.80;1.00;;;;;;8354452;28;20204;-64
2022/03/04 15:16:46;;;;;;;14.00;7.70;;;2.60;99.90;;;;;;8330498;28;20198;-64
2022/03/04 15:20:47;;;;;;;8.70;5.13;;;2.60;82.90;;;;;;8338971;28;20221;-66
2022/03/04 15:24:47;;;;;;;12.63;6.63;;;2.60;1.00;;;;;;8335030;28;20233;-64
2022/03/04 15:28:48;;;;;;;14.33;7.27;;;2.60;1.00;;;;;;8355930;28;20216;-65
2022/03/04 15:32:49;;;;;;;11.30;5.90;;;2.60;99.90;;;;;;8351791;28;20293;-65
2022/03/04 15:36:52;;;;;;;6.43;4.60;;;2.70;99.90;;;;;;8348512;28;20206;-65
2022/03/04 15:40:52;;;;;;;8.27;4.43;;;2.70;99.90;;;;;;8350425;28;20221;-66
2022/03/04 15:44:55;;;;;;;6.80;4.80;;;2.70;1.00;;;;;;8339023;28;20232;-67
2022/03/04 15:48:56;;;;;;;7.47;4.07;;;2.80;99.90;;;;;;8337915;28;20205;-66
2022/03/04 15:52:57;;;;;;;9.97;4.57;;;2.70;99.90;;;;;;8356082;28;20281;-64
2022/03/04 15:56:58;;;;;;;4.70;3.20;;;2.70;99.90;;;;;;8339065;28;20209;-64
2022/03/04 16:01:00;;;;;;;9.70;4.87;;;2.60;99.90;;;;;;8336285;28;20223;-65
2022/03/04 16:05:00;;;;;;;6.17;3.77;;;2.50;99.90;;;;;;8339008;28;20212;-65
2022/03/04 16:09:04;;;;;;;6.87;4.87;;;2.40;1.00;;;;;;8356196;28;20618;-64
2022/03/04 16:13:05;;;;;;;6.23;3.83;;;2.30;99.90;;;;;;8331284;28;20205;-64
2022/03/04 16:17:06;;;;;;;7.80;4.63;;;2.20;99.90;;;;;;8328250;28;20206;-65
2022/03/04 16:21:08;;;;;;;9.57;5.03;;;2.10;1.00;;;;;;8329866;28;20222;-66
2022/03/04 16:25:09;;;;;;;13.47;6.53;;;2.10;28.10;;;;;;8346704;28;20198;-65
2022/03/04 16:29:11;;;;;;;9.17;4.93;;;2.00;99.90;;;;;;8345463;28;20217;-64
2022/03/04 16:33:12;;;;;;;18.90;7.73;;;2.00;99.90;;;;;;8349519;28;20198;-64
2022/03/04 16:37:13;;;;;;;13.43;7.37;;;1.90;99.90;;;;;;8338047;28;20207;-64
2022/03/04 16:41:15;;;;;;;13.20;6.77;;;1.90;99.90;;;;;;8331367;28;20228;-64
2022/03/04 16:45:16;;;;;;;18.17;7.10;;;1.80;1.00;;;;;;8353201;28;20276;-64
2022/03/04 16:49:17;;;;;;;7.97;5.73;;;1.70;1.00;;;;;;8334935;28;20201;-66
2022/03/04 16:53:19;;;;;;;10.40;6.10;;;1.70;1.40;;;;;;8336507;28;20287;-65
2022/03/04 16:57:21;;;;;;;13.60;6.63;;;1.60;99.90;;;;;;8352403;28;20205;-65
2022/03/04 17:01:22;;;;;;;9.10;6.23;;;1.60;99.90;;;;;;8328378;28;20236;-65
2022/03/04 17:05:23;;;;;;;12.90;6.50;;;1.50;99.90;;;;;;8333742;28;20209;-65
2022/03/04 17:09:24;;;;;;;15.30;6.63;;;1.50;99.90;;;;;;8352461;28;20276;-66
2022/03/04 17:13:26;;;;;;;14.77;7.47;;;1.40;99.90;;;;;;8344936;28;20217;-65
2022/03/04 17:17:27;;;;;;;13.27;7.40;;;1.40;99.90;;;;;;8363227;28;20255;-65
2022/03/04 17:21:28;;;;;;;18.30;8.30;;;1.30;99.90;;;;;;8345783;28;20221;-66
2022/03/04 17:25:29;;;;;;;13.90;7.63;;;1.20;99.90;;;;;;8345324;28;20205;-65
2022/03/04 17:29:30;;;;;;;11.37;7.53;;;1.20;99.90;;;;;;8342860;28;20216;-65
2022/03/04 17:33:31;;;;;;;13.27;7.47;;;1.20;99.90;;;;;;8351619;28;20214;-65
2022/03/04 17:37:32;;;;;;;12.13;6.90;;;1.10;99.90;;;;;;8351399;28;20211;-65
2022/03/04 17:41:33;;;;;;;13.93;7.13;;;1.10;99.90;;;;;;8368427;28;20300;-65
2022/03/04 17:45:35;;;;;;;23.13;12.07;;;1.10;99.90;;;;;;8350671;28;20263;-65
2022/03/04 17:49:36;;;;;;;27.27;11.17;;;1.00;99.90;;;;;;8350829;28;20200;-65
2022/03/04 17:53:36;;;;;;;19.23;9.43;;;1.00;99.90;;;;;;8351096;28;20209;-65
2022/03/04 17:57:37;;;;;;;13.23;6.67;;;1.00;99.90;;;;;;8368375;28;20206;-65
2022/03/04 18:01:39;;;;;;;13.97;7.27;;;1.00;99.90;;;;;;8350117;28;20233;-65
2022/03/04 18:05:40;;;;;;;14.43;7.67;;;1.00;99.90;;;;;;8350411;28;20197;-65
2022/03/04 18:09:41;;;;;;;20.00;9.47;;;1.00;99.90;;;;;;8368544;28;20293;-65
2022/03/04 18:13:41;;;;;;;17.03;8.93;;;1.00;99.90;;;;;;8350448;28;20208;-65
2022/03/04 18:17:42;;;;;;;19.20;8.93;;;0.90;99.90;;;;;;8350617;28;20237;-65
2022/03/04 18:21:43;;;;;;;17.53;9.80;;;0.90;99.90;;;;;;8349889;28;20376;-65
2022/03/04 18:25:46;;;;;;;12.73;7.83;;;0.90;99.90;;;;;;8350500;28;20209;-65
2022/03/04 18:29:48;;;;;;;14.57;7.17;;;0.90;99.90;;;;;;8350219;28;20210;-64
2022/03/04 18:33:48;;;;;;;9.43;6.33;;;0.90;99.90;;;;;;8367881;28;20210;-65
2022/03/04 18:37:50;;;;;;;14.07;6.17;;;0.90;99.90;;;;;;8349642;28;20215;-65
2022/03/04 18:41:50;;;;;;;15.37;6.33;;;0.80;99.90;;;;;;8348399;28;20276;-65
2022/03/04 18:45:52;;;;;;;9.97;5.50;;;0.80;99.90;;;;;;8349677;28;20255;-65
2022/03/04 18:49:53;;;;;;;10.60;5.50;;;0.80;99.90;;;;;;8349637;28;20311;-66
2022/03/04 18:53:54;;;;;;;10.77;5.37;;;0.70;99.90;;;;;;8350363;28;20228;-65
2022/03/04 18:57:56;;;;;;;9.70;5.90;;;0.70;99.90;;;;;;8368065;28;20217;-65
2022/03/04 19:01:58;;;;;;;13.13;6.47;;;0.60;99.90;;;;;;8348031;28;20275;-65
2022/03/04 19:06:00;;;;;;;12.17;6.70;;;0.60;99.90;;;;;;8349772;28;20240;-65
2022/03/04 19:10:02;;;;;;;10.53;6.30;;;0.60;99.90;;;;;;8348518;28;20221;-65
2022/03/04 19:14:03;;;;;;;10.47;6.70;;;0.60;99.90;;;;;;8349397;28;20295;-65
2022/03/04 19:18:04;;;;;;;13.07;7.03;;;0.50;99.90;;;;;;8348811;28;20205;-65
2022/03/04 19:22:10;;;;;;;11.73;6.53;;;0.60;99.90;;;;;;8348243;28;20253;-65
2022/03/04 19:26:11;;;;;;;11.90;7.03;;;0.50;99.90;;;;;;8336539;28;20288;-64
2022/03/04 19:30:14;;;;;;;12.53;7.63;;;0.50;99.90;;;;;;8348177;28;20205;-65
2022/03/04 19:34:15;;;;;;;15.40;7.87;;;0.50;99.90;;;;;;8331834;28;20308;-64
2022/03/04 19:38:16;;;;;;;13.43;7.83;;;0.50;99.90;;;;;;8347663;28;20206;-65
2022/03/04 19:42:17;;;;;;;14.23;7.47;;;0.50;99.90;;;;;;8348226;28;20241;-64
2022/03/04 19:46:18;;;;;;;12.70;6.80;;;0.40;99.90;;;;;;8348379;28;20203;-65
2022/03/04 19:50:19;;;;;;;13.00;6.57;;;0.40;99.90;;;;;;8343667;28;20213;-65
2022/03/04 19:54:22;;;;;;;12.67;6.70;;;0.40;99.90;;;;;;8346583;28;20217;-64
2022/03/04 19:58:23;;;;;;;12.70;6.77;;;0.40;99.90;;;;;;8347809;28;20212;-64
2022/03/04 20:02:25;;;;;;;12.90;6.60;;;0.50;99.90;;;;;;8347950;28;20233;-65
2022/03/04 20:06:26;;;;;;;13.33;6.60;;;0.50;99.90;;;;;;8347865;28;20217;-64
2022/03/04 20:10:27;;;;;;;7.43;4.77;;;0.40;99.90;;;;;;8347935;28;20208;-64
2022/03/04 20:14:28;;;;;;;10.73;5.60;;;0.40;99.90;;;;;;8347613;28;20209;-65
2022/03/04 20:18:31;;;;;;;10.97;5.83;;;0.40;99.90;;;;;;8365475;28;20295;-65
2022/03/04 20:22:34;;;;;;;20.93;11.17;;;0.30;99.90;;;;;;8348162;28;20216;-63
2022/03/04 20:26:35;;;;;;;10.43;5.93;;;0.20;99.90;;;;;;8348536;28;20207;-65
2022/03/04 20:30:36;;;;;;;9.07;5.03;;;0.20;99.90;;;;;;8348897;28;20252;-64
2022/03/04 20:34:38;;;;;;;10.63;5.67;;;0.20;99.90;;;;;;8348060;28;20209;-65
2022/03/04 20:38:44;;;;;;;10.70;5.43;;;0.20;99.90;;;;;;8348123;28;20205;-65
2022/03/04 20:42:46;;;;;;;9.40;5.63;;;0.20;99.90;;;;;;8348579;28;20236;-64
2022/03/04 20:46:47;;;;;;;10.20;5.97;;;0.20;99.90;;;;;;8349233;28;20235;-65